地図

経路データ

SID SEASON NUMBER BASIN SUBBASIN NAME ISO_TIME NATURE LAT LON WMO_WIND WMO_PRES WMO_AGENCY TRACK_TYPE DIST2LAND LANDFALL IFLAG USA_AGENCY USA_ATCF_ID USA_LAT USA_LON USA_RECORD USA_STATUS USA_WIND USA_PRES USA_SSHS USA_R34_NE USA_R34_SE USA_R34_SW USA_R34_NW USA_R50_NE USA_R50_SE USA_R50_SW USA_R50_NW USA_R64_NE USA_R64_SE USA_R64_SW USA_R64_NW USA_POCI USA_ROCI USA_RMW USA_EYE TOKYO_LAT TOKYO_LON TOKYO_GRADE TOKYO_WIND TOKYO_PRES TOKYO_R50_DIR TOKYO_R50_LONG TOKYO_R50_SHORT TOKYO_R30_DIR TOKYO_R30_LONG TOKYO_R30_SHORT TOKYO_LAND CMA_LAT CMA_LON CMA_CAT CMA_WIND CMA_PRES HKO_LAT HKO_LON HKO_CAT HKO_WIND HKO_PRES NEWDELHI_LAT NEWDELHI_LON NEWDELHI_GRADE NEWDELHI_WIND NEWDELHI_PRES NEWDELHI_CI NEWDELHI_DP NEWDELHI_POCI REUNION_LAT REUNION_LON REUNION_TYPE REUNION_WIND REUNION_PRES REUNION_TNUM REUNION_CI REUNION_RMW REUNION_R34_NE REUNION_R34_SE REUNION_R34_SW REUNION_R34_NW REUNION_R50_NE REUNION_R50_SE REUNION_R50_SW REUNION_R50_NW REUNION_R64_NE REUNION_R64_SE REUNION_R64_SW REUNION_R64_NW BOM_LAT BOM_LON BOM_TYPE BOM_WIND BOM_PRES BOM_TNUM BOM_CI BOM_RMW BOM_R34_NE BOM_R34_SE BOM_R34_SW BOM_R34_NW BOM_R50_NE BOM_R50_SE BOM_R50_SW BOM_R50_NW BOM_R64_NE BOM_R64_SE BOM_R64_SW BOM_R64_NW BOM_ROCI BOM_POCI BOM_EYE BOM_POS_METHOD BOM_PRES_METHOD NADI_LAT NADI_LON NADI_CAT NADI_WIND NADI_PRES WELLINGTON_LAT WELLINGTON_LON WELLINGTON_WIND WELLINGTON_PRES DS824_LAT DS824_LON DS824_STAGE DS824_WIND DS824_PRES TD9636_LAT TD9636_LON TD9636_STAGE TD9636_WIND TD9636_PRES TD9635_LAT TD9635_LON TD9635_WIND TD9635_PRES TD9635_ROCI NEUMANN_LAT NEUMANN_LON NEUMANN_CLASS NEUMANN_WIND NEUMANN_PRES MLC_LAT MLC_LON MLC_CLASS MLC_WIND MLC_PRES USA_GUST BOM_GUST BOM_GUST_PER REUNION_GUST REUNION_GUST_PER USA_SEAHGT USA_SEARAD_NE USA_SEARAD_SE USA_SEARAD_SW USA_SEARAD_NW STORM_SPEED STORM_DIR
1958263N20176 1958 86 WP MM JUNE 1958-09-20 00:00:00 TS 19.5000 176.000 spur-split 2528 2524 O________OOO__ jtwc_wp WP161958 19.5000 176.000 30 -1 19.5000 176.000 TC 30 19.5000 176.000 1 32 19.5000 176.000 32 995 360 4 4
1958263N20176 1958 86 WP MM JUNE 1958-09-20 03:00:00 TS 19.7197 176.000 spur-split 2524 2494 P________PPP__ WP161958 19.6800 176.000 32 -1 19.6800 176.000 TC 32 19.8389 176.000 1 32 19.6800 176.000 33 994 420 8 17
1958263N20176 1958 86 WP MM JUNE 1958-09-20 06:00:00 TS 20.2821 176.254 spur-split 2482 2463 O________OPO__ jtwc_wp WP161958 20.0000 176.000 35 0 20.0000 176.000 TC 35 20.2222 176.000 1 33 20.0000 176.000 35 993 480 13 18
1958263N20176 1958 86 WP MM JUNE 1958-09-20 09:00:00 TS 20.9331 176.433 spur-split 2463 2422 P________PPP__ WP161958 20.5600 176.000 35 0 20.5600 176.000 TC 35 20.6944 176.000 1 34 20.5600 176.000 35 991 480 16 15
1958263N20176 1958 86 WP MM JUNE 1958-09-20 12:00:00 TS 21.7737 176.679 spur-split 2421 2394 O________OOO__ jtwc_wp WP161958 21.3000 176.000 35 0 21.3000 176.000 TC 35 21.3000 176.000 2 35 21.3000 176.000 35 990 480 18 13
1958263N20176 1958 86 WP MM JUNE 1958-09-20 15:00:00 TS 22.6569 176.868 spur-split 2394 2392 P________PPP__ WP161958 22.0901 176.000 47 0 22.0901 176.000 TC 47 22.0702 176.000 2 41 22.0901 176.000 47 987 390 17 4
1958263N20176 1958 86 WP MM JUNE 1958-09-20 18:00:00 TS 23.4967 176.800 spur-split 2401 2401 O________OPO__ jtwc_wp WP161958 23.0000 176.000 60 0 23.0000 176.000 TC 60 22.9834 176.000 2 47 23.0000 176.000 60 985 300 18 354
1958263N20176 1958 86 WP MM JUNE 1958-09-20 21:00:00 TS 24.3891 176.668 spur-split 2412 2412 P________PPP__ WP161958 24.0200 176.000 60 0 24.0200 176.000 TC 60 24.0048 176.000 2 53 24.0200 176.000 60 985 300 19 351
1958263N20176 1958 86 WP MM JUNE 1958-09-21 00:00:00 TS 25.3200 176.500 spur-split 2437 2437 O________OOO__ jtwc_wp WP161958 25.1000 176.000 60 0 25.1000 176.000 TC 60 25.1000 176.000 2 60 25.1000 176.000 60 985 300 19 351
1958263N20176 1958 86 WP MM JUNE 1958-09-21 03:00:00 TS 26.2158 176.348 spur-split 2465 2465 P________PPP__ WP161958 26.1125 176.000 62 0 26.1125 176.000 TC 62 26.2393 176.000 2 61 26.1125 176.000 62 984 270 19 352
1958263N20176 1958 86 WP MM JUNE 1958-09-21 06:00:00 TS 27.1909 176.211 spur-split 2489 2489 O________OPO__ jtwc_wp WP161958 27.2000 176.000 65 1 27.2000 176.000 TC 65 27.4092 176.000 2 62 27.2000 176.000 65 984 240 20 353
1958263N20176 1958 86 WP MM JUNE 1958-09-21 09:00:00 TS 28.2353 176.065 spur-split 2516 2516 P________PPP__ WP161958 28.3056 176.000 65 1 28.3056 176.000 TC 65 28.5996 176.000 2 63 28.3056 176.000 65 984 210 24 354
1958263N20176 1958 86 WP MM JUNE 1958-09-21 12:00:00 TS 29.6000 175.900 spur-split 2568 2568 O________OOO__ jtwc_wp WP161958 29.8000 176.000 65 1 29.8000 176.000 TC 65 29.8000 176.000 3 65 29.8000 176.000 65 984 180 35 353
1958263N20176 1958 86 WP MM JUNE 1958-09-21 15:00:00 TS 31.6533 175.598 spur-split 2620 2433 P________P_P__ WP161958 32.2322 175.928 57 0 32.2322 175.928 TC 57 3 31.9523 176.000 57 986 120 41 355
1958263N20176 1958 86 WP MM JUNE 1958-09-21 18:00:00 TS 33.7000 175.446 spur-split 2424 2341 O________O_O__ jtwc_wp WP161958 34.5000 176.000 50 0 34.5000 176.000 TC 50 3 34.5000 176.000 50 989 60 32 1
1958263N20176 1958 86 WP MM JUNE 1958-09-21 21:00:00 TS 34.8080 175.687 spur-split 2341 2229 P________P____ WP161958 35.4516 176.390 45 0 35.4516 176.390 TC 45 3 23 22
1958263N20176 1958 86 WP MM JUNE 1958-09-22 00:00:00 TS 35.8091 176.482 spur-split 2215 2055 O________O____ jtwc_wp WP161958 36.0000 177.000 40 0 36.0000 177.000 TC 40 27 34
1958263N20176 1958 86 WP MM JUNE 1958-09-22 03:00:00 TS 37.0453 177.541 spur-split 2055 1907 P________P____ WP161958 37.0010 177.762 37 0 37.0010 177.762 TC 37 28 35
1958263N20176 1958 86 WP MM JUNE 1958-09-22 06:00:00 TS 38.1333 178.522 spur-split 1907 1843 O________O____ jtwc_wp WP161958 38.0000 178.500 35 0 38.0000 178.500 TC 35 19 27
1958263N20176 1958 86 WP MM JUNE 1958-09-22 09:00:00 TS 38.7004 178.608 spur-split 1843 1750 P________P____ WP161958 38.7004 178.608 32 -1 38.7004 178.608 TC 32 15 24
1958263N20176 1958 86 WP MM JUNE 1958-09-22 12:00:00 TS 39.5000 179.300 spur-split 1736 1548 O________O____ jtwc_wp WP161958 39.5000 179.300 30 -1 39.5000 179.300 TC 30 30 49
1958263N20176 1958 86 EP CP JUNE 1958-09-22 15:00:00 TS 40.6699 181.596 spur-split 1531 1308 P________P____ WP161958 40.6699 -178.404 30 -1 40.6699 -178.404 TC 30 50 60
1958263N20176 1958 86 EP CP JUNE 1958-09-22 18:00:00 TS 42.0000 185.000 spur-split 1292 O________O____ jtwc_wp WP161958 42.0000 -175.000 30 -1 42.0000 185.000 TC 30 57 62

デジタル台風データ・検索

IBTrACS Databaseについて

本データベースは、米国NOAAが公開する1842年以降の世界の熱帯低気圧のベストトラックデータアーカイブInternational Best Track Archive for Climate Stewardship (IBTrACS)を、ウェブで閲覧しやすい形式に変換したものです。

最終更新日:2021-10-08